Time;durP1;ratioP1;P1;durP2;ratioP2;P2;SDS_P1;SDS_P2;PMS_P1;PMS_P2;Temp;Humidity;BMP_temperature;BMP_pressure;BME280_temperature;BME280_humidity;BME280_pressure;Samples;Min_cycle;Max_cycle;Signal;HPM_P1;HPM_P2
2024/02/06 00:00:39;;;;;;;12.48;5.28;;;;;;;-145.63;100.00;61273.97;5031671;28;20030;-64
2024/02/06 00:03:04;;;;;;;11.20;4.55;;;;;;;-145.63;100.00;61273.97;5031793;28;20033;-65
2024/02/06 00:05:30;;;;;;;10.35;4.75;;;;;;;-145.63;100.00;61273.97;5029365;28;20026;-68
2024/02/06 00:07:56;;;;;;;9.85;4.60;;;;;;;-145.63;100.00;61273.97;5015584;28;20049;-65
2024/02/06 00:10:22;;;;;;;6.47;4.22;;;;;;;-145.63;100.00;61273.97;5037855;28;20467;-65
2024/02/06 00:12:47;;;;;;;7.70;4.50;;;;;;;-145.63;100.00;61273.97;5051371;28;20029;-65
2024/02/06 00:15:13;;;;;;;10.30;4.88;;;;;;;-145.63;100.00;61273.97;5037701;28;20029;-68
2024/02/06 00:17:38;;;;;;;11.80;5.20;;;;;;;-145.63;100.00;61273.97;5031712;28;20107;-65
2024/02/06 00:20:05;;;;;;;9.80;4.82;;;;;;;-145.63;100.00;61273.97;5031509;28;20029;-65
2024/02/06 00:22:31;;;;;;;9.00;4.53;;;;;;;-145.63;100.00;61273.97;5031548;28;20029;-68
2024/02/06 00:24:56;;;;;;;8.95;4.40;;;;;;;-145.63;100.00;61273.97;5031402;28;20080;-67
2024/02/06 00:27:22;;;;;;;10.82;4.82;;;;;;;-145.63;100.00;61273.97;5016314;28;20077;-67
2024/02/06 00:29:54;;;;;;;13.10;5.00;;;;;;;-145.63;100.00;61273.97;5022364;28;20029;-66
2024/02/06 00:32:21;;;;;;;10.65;5.22;;;;;;;-145.63;100.00;61273.97;5035059;28;20057;-67
2024/02/06 00:34:48;;;;;;;9.05;4.95;;;;;;;-145.63;100.00;61273.97;5035231;28;20029;-67
2024/02/06 00:37:15;;;;;;;9.13;4.78;;;;;;;-145.63;100.00;61273.97;5034869;28;20128;-66
2024/02/06 00:39:41;;;;;;;9.18;4.70;;;;;;;-145.63;100.00;61273.97;5035258;28;20052;-65
2024/02/06 00:42:07;;;;;;;8.02;5.20;;;;;;;-145.63;100.00;61273.97;5035360;28;20025;-66
2024/02/06 00:44:32;;;;;;;9.77;5.40;;;;;;;-145.63;100.00;61273.97;5035106;28;20048;-66
2024/02/06 00:46:58;;;;;;;12.10;5.03;;;;;;;-145.63;100.00;61273.97;5025418;28;20029;-65
2024/02/06 00:49:23;;;;;;;11.45;4.50;;;;;;;-145.63;100.00;61273.97;5035094;28;20026;-67
2024/02/06 00:51:49;;;;;;;17.25;6.18;;;;;;;-145.63;100.00;61273.97;5034800;28;20041;-66
2024/02/06 00:54:33;;;;;;;8.07;4.75;;;;;;;-145.63;100.00;61273.97;5034231;28;20034;-66
2024/02/06 00:56:59;;;;;;;11.18;5.45;;;;;;;-145.63;100.00;61273.97;5034698;28;20455;-65
2024/02/06 00:59:26;;;;;;;8.75;4.68;;;;;;;-145.63;100.00;61273.97;5034504;28;20056;-67
2024/02/06 01:02:14;;;;;;;11.93;4.80;;;;;;;-145.63;100.00;61273.97;5034447;28;20037;-65
2024/02/06 01:04:39;;;;;;;8.98;4.50;;;;;;;-145.63;100.00;61273.97;5034664;28;20045;-64
2024/02/06 01:07:05;;;;;;;7.90;4.80;;;;;;;-145.63;100.00;61273.97;5033367;28;20079;-65
2024/02/06 01:09:31;;;;;;;7.78;4.47;;;;;;;-145.63;100.00;61273.97;5034812;28;20017;-65
2024/02/06 01:11:56;;;;;;;7.70;4.57;;;;;;;-145.63;100.00;61273.97;5053651;28;20401;-66
2024/02/06 01:14:22;;;;;;;8.10;4.60;;;;;;;-145.63;100.00;61273.97;5047755;28;20068;-66
2024/02/06 01:16:48;;;;;;;9.95;4.75;;;;;;;-145.63;100.00;61273.97;5016688;28;20125;-66
2024/02/06 01:19:13;;;;;;;9.32;4.70;;;;;;;-145.63;100.00;61273.97;5034602;28;20045;-65
2024/02/06 01:21:39;;;;;;;8.68;4.65;;;;;;;-145.63;100.00;61273.97;5033166;28;20041;-65
2024/02/06 01:24:06;;;;;;;9.13;4.90;;;;;;;-145.63;100.00;61273.97;5034053;28;20029;-67
2024/02/06 01:26:31;;;;;;;7.30;4.68;;;;;;;-145.63;100.00;61273.97;5027008;28;20752;-65
2024/02/06 01:28:57;;;;;;;8.93;4.72;;;;;;;-145.63;100.00;61273.97;5017389;28;20045;-65
2024/02/06 01:31:25;;;;;;;11.18;5.40;;;;;;;-145.63;100.00;61273.97;5034266;28;20033;-66
2024/02/06 01:33:51;;;;;;;8.50;4.35;;;;;;;-145.63;100.00;61273.97;5034031;28;20037;-67
2024/02/06 01:36:17;;;;;;;7.68;4.55;;;;;;;-145.63;100.00;61273.97;5033827;28;20053;-67
2024/02/06 01:38:43;;;;;;;7.38;4.32;;;;;;;-145.63;100.00;61273.97;5034363;28;20034;-66
2024/02/06 01:41:08;;;;;;;9.57;4.38;;;;;;;-145.63;100.00;61273.97;5033891;28;20042;-67
2024/02/06 01:43:49;;;;;;;7.32;4.15;;;;;;;-145.63;100.00;61273.97;5032563;28;20087;-66
2024/02/06 01:46:15;;;;;;;10.35;4.32;;;;;;;-145.63;100.00;61273.97;5034721;28;20032;-64
2024/02/06 01:48:40;;;;;;;8.15;4.07;;;;;;;-145.63;100.00;61273.97;5034527;28;20030;-65
2024/02/06 01:51:07;;;;;;;10.70;4.57;;;;;;;-145.63;100.00;61273.97;5029512;28;20037;-65
2024/02/06 01:53:51;;;;;;;6.60;4.15;;;;;;;-145.63;100.00;61273.97;5025708;28;20044;-64
2024/02/06 01:56:17;;;;;;;6.53;3.78;;;;;;;-145.63;100.00;61273.97;5014122;28;20029;-65
2024/02/06 01:58:43;;;;;;;7.05;4.03;;;;;;;-145.63;100.00;61273.97;5014826;28;20488;-65
2024/02/06 02:01:14;;;;;;;9.48;4.57;;;;;;;-145.63;100.00;61273.97;5033379;28;20077;-65
2024/02/06 02:03:40;;;;;;;6.70;3.72;;;;;;;-145.63;100.00;61273.97;5032144;28;20040;-67
2024/02/06 02:06:25;;;;;;;7.28;4.00;;;;;;;-145.63;100.00;61273.97;5022347;28;20096;-65
2024/02/06 02:08:51;;;;;;;7.10;3.70;;;;;;;-145.63;100.00;61273.97;5023792;28;20037;-64
2024/02/06 02:11:29;;;;;;;6.53;3.92;;;;;;;-145.63;100.00;61273.97;5026027;28;20037;-66
2024/02/06 02:13:55;;;;;;;6.05;4.32;;;;;;;-145.63;100.00;61273.97;5013874;28;20026;-67
2024/02/06 02:16:22;;;;;;;8.90;4.22;;;;;;;-145.63;100.00;61273.97;5013272;28;20112;-66
2024/02/06 02:18:48;;;;;;;6.25;3.95;;;;;;;-145.63;100.00;61273.97;5030529;28;20029;-68
2024/02/06 02:21:15;;;;;;;8.27;3.95;;;;;;;-145.63;100.00;61273.97;5032716;28;20040;-66
2024/02/06 02:23:47;;;;;;;8.70;4.45;;;;;;;-145.63;100.00;61273.97;5033190;28;20117;-66
2024/02/06 02:26:16;;;;;;;8.55;4.38;;;;;;;-145.63;100.00;61273.97;5032852;28;20464;-65
2024/02/06 02:28:45;;;;;;;8.50;4.15;;;;;;;-145.63;100.00;61273.97;5033375;28;20030;-68
2024/02/06 02:31:39;;;;;;;7.38;3.97;;;;;;;-145.63;100.00;61273.97;5023667;28;20053;-66
2024/02/06 02:34:07;;;;;;;10.35;4.57;;;;;;;-145.63;100.00;61273.97;5032625;28;20030;-67
2024/02/06 02:36:33;;;;;;;6.97;4.15;;;;;;;-145.63;100.00;61273.97;5032655;28;20033;-67
2024/02/06 02:38:58;;;;;;;6.93;3.90;;;;;;;-145.63;100.00;61273.97;5032943;28;20648;-67
2024/02/06 02:41:25;;;;;;;5.72;3.55;;;;;;;-145.63;100.00;61273.97;5033771;28;20057;-66
2024/02/06 02:43:51;;;;;;;5.95;3.67;;;;;;;-145.63;100.00;61273.97;5034391;28;20041;-66
2024/02/06 02:46:42;;;;;;;4.90;3.25;;;;;;;-145.63;100.00;61273.97;5034682;28;20052;-66
2024/02/06 02:49:17;;;;;;;7.78;3.55;;;;;;;-145.63;100.00;61273.97;5013933;28;20033;-66
2024/02/06 02:51:52;;;;;;;7.22;3.75;;;;;;;-145.63;100.00;61273.97;5027514;28;20052;-64
2024/02/06 02:54:19;;;;;;;7.72;3.65;;;;;;;-145.63;100.00;61273.97;5032583;28;20064;-66
2024/02/06 02:57:12;;;;;;;6.00;3.88;;;;;;;-145.63;100.00;61273.97;5032953;28;20105;-67
2024/02/06 03:00:06;;;;;;;10.30;4.30;;;;;;;-145.63;100.00;61273.97;5032667;28;20521;-67
2024/02/06 03:02:44;;;;;;;6.45;3.60;;;;;;;-145.63;100.00;61273.97;5032683;28;20171;-67
2024/02/06 03:05:10;;;;;;;8.27;3.90;;;;;;;-145.63;100.00;61273.97;5029675;28;20030;-66
2024/02/06 03:07:35;;;;;;;7.60;4.30;;;;;;;-145.63;100.00;61273.97;5031807;28;20032;-66
2024/02/06 03:10:01;;;;;;;7.40;4.80;;;;;;;-145.63;100.00;61273.97;5035598;28;20047;-66
2024/02/06 03:12:31;;;;;;;9.48;4.22;;;;;;;-145.63;100.00;61273.97;5035434;28;20054;-66
2024/02/06 03:15:02;;;;;;;7.18;4.05;;;;;;;-145.63;100.00;61273.97;5022650;28;20022;-65
2024/02/06 03:17:31;;;;;;;6.03;3.78;;;;;;;-145.63;100.00;61273.97;5029845;28;20030;-67
2024/02/06 03:19:56;;;;;;;6.57;3.72;;;;;;;-145.63;100.00;61273.97;5032503;28;20033;-66
2024/02/06 03:22:26;;;;;;;7.03;4.18;;;;;;;-145.63;100.00;61273.97;5031883;28;20032;-65
2024/02/06 03:24:52;;;;;;;4.90;3.42;;;;;;;-145.63;100.00;61273.97;5032524;28;20032;-68
2024/02/06 03:27:18;;;;;;;6.57;3.28;;;;;;;-145.63;100.00;61273.97;5032240;28;20633;-66
2024/02/06 03:29:44;;;;;;;7.28;3.30;;;;;;;-145.63;100.00;61273.97;5032373;28;20038;-66
2024/02/06 03:32:10;;;;;;;6.35;3.45;;;;;;;-145.63;100.00;61273.97;5028766;28;20187;-68
2024/02/06 03:34:36;;;;;;;4.13;3.10;;;;;;;-145.63;100.00;61273.97;5012698;28;20045;-66
2024/02/06 03:37:05;;;;;;;4.68;3.17;;;;;;;-145.63;100.00;61273.97;5031054;28;20087;-66
2024/02/06 03:39:33;;;;;;;6.40;3.22;;;;;;;-145.63;100.00;61273.97;5030649;28;20040;-68
2024/02/06 03:42:20;;;;;;;5.93;3.47;;;;;;;-145.63;100.00;61273.97;5023161;28;20437;-67
2024/02/06 03:45:05;;;;;;;5.18;2.90;;;;;;;-145.63;100.00;61273.97;5030612;28;20402;-67
2024/02/06 03:47:33;;;;;;;5.90;3.17;;;;;;;-145.63;100.00;61273.97;5032015;28;20021;-67
2024/02/06 03:49:59;;;;;;;6.43;3.42;;;;;;;-145.63;100.00;61273.97;5031626;28;20509;-66
2024/02/06 03:52:24;;;;;;;7.50;3.22;;;;;;;-145.63;100.00;61273.97;5014974;28;20041;-66
2024/02/06 03:54:53;;;;;;;4.55;3.13;;;;;;;-145.63;100.00;61273.97;5028914;28;20458;-66
2024/02/06 03:57:43;;;;;;;6.45;3.72;;;;;;;-145.63;100.00;61273.97;5032045;28;20038;-66
2024/02/06 04:00:27;;;;;;;4.13;3.00;;;;;;;-145.63;100.00;61273.97;5030242;28;20140;-65
2024/02/06 04:03:29;;;;;;;7.80;4.15;;;;;;;-145.63;100.00;61273.97;5022088;28;20037;-66
2024/02/06 04:06:04;;;;;;;5.68;3.63;;;;;;;-145.63;100.00;61273.97;5032062;28;20033;-65
2024/02/06 04:08:29;;;;;;;7.38;3.85;;;;;;;-145.63;100.00;61273.97;5029929;28;20036;-66
2024/02/06 04:10:58;;;;;;;4.60;3.45;;;;;;;-145.63;100.00;61273.97;5022793;28;20030;-65
2024/02/06 04:13:24;;;;;;;5.25;3.38;;;;;;;-145.63;100.00;61273.97;5026699;28;20035;-67
2024/02/06 04:15:49;;;;;;;8.32;3.85;;;;;;;-145.63;100.00;61273.97;5019059;28;20113;-66
2024/02/06 04:18:15;;;;;;;6.45;4.05;;;;;;;-145.63;100.00;61273.97;5027357;28;20116;-66
2024/02/06 04:20:41;;;;;;;6.10;4.10;;;;;;;-145.63;100.00;61273.97;5028249;28;20029;-67
2024/02/06 04:23:06;;;;;;;7.80;4.07;;;;;;;-145.63;100.00;61273.97;5017115;28;20030;-68
2024/02/06 04:25:32;;;;;;;6.22;4.50;;;;;;;-145.63;100.00;61273.97;5036087;28;20093;-66
2024/02/06 04:27:59;;;;;;;7.43;4.32;;;;;;;-145.63;100.00;61273.97;5035222;28;20113;-67
2024/02/06 04:30:24;;;;;;;7.63;4.40;;;;;;;-145.63;100.00;61273.97;5021908;28;20041;-66
2024/02/06 04:32:53;;;;;;;5.85;4.15;;;;;;;-145.63;100.00;61273.97;5026607;28;20038;-65
2024/02/06 04:35:19;;;;;;;5.63;4.03;;;;;;;-145.63;100.00;61273.97;5018858;28;20067;-66
2024/02/06 04:37:44;;;;;;;6.65;4.47;;;;;;;-145.63;100.00;61273.97;5034894;28;20057;-68
2024/02/06 04:40:11;;;;;;;8.40;4.63;;;;;;;-145.63;100.00;61273.97;5015447;28;20137;-68
2024/02/06 04:42:37;;;;;;;6.82;4.75;;;;;;;-145.63;100.00;61273.97;5032187;28;20127;-66
2024/02/06 04:45:06;;;;;;;7.53;5.15;;;;;;;-145.63;100.00;61273.97;5038987;28;20097;-66
2024/02/06 04:47:32;;;;;;;8.10;5.80;;;;;;;-145.63;100.00;61273.97;5031471;28;20459;-66
2024/02/06 04:49:58;;;;;;;12.48;5.63;;;;;;;-145.63;100.00;61273.97;5020762;28;20543;-66
2024/02/06 04:52:24;;;;;;;8.80;5.35;;;;;;;-145.63;100.00;61273.97;5014516;28;20034;-65
2024/02/06 04:54:50;;;;;;;11.63;6.32;;;;;;;-145.63;100.00;61273.97;5030943;28;20065;-66
2024/02/06 04:57:15;;;;;;;10.65;6.50;;;;;;;-145.63;100.00;61273.97;5034352;28;20041;-64
2024/02/06 04:59:41;;;;;;;8.35;5.50;;;;;;;-145.63;100.00;61273.97;5021883;28;20045;-66
2024/02/06 05:02:10;;;;;;;9.40;5.47;;;;;;;-145.63;100.00;61273.97;5034436;28;20037;-65
2024/02/06 05:04:35;;;;;;;9.57;5.90;;;;;;;-145.63;100.00;61273.97;5033927;28;20044;-65
2024/02/06 05:07:02;;;;;;;10.38;6.13;;;;;;;-145.63;100.00;61273.97;5033001;28;20046;-65
2024/02/06 05:12:47;;;;;;;10.52;5.85;;;;;;;-145.63;100.00;61273.97;5033219;28;20128;-64
2024/02/06 05:15:12;;;;;;;9.00;5.97;;;;;;;-145.63;100.00;61273.97;5023053;28;20157;-65
2024/02/06 05:17:40;;;;;;;8.57;5.85;;;;;;;-145.63;100.00;61273.97;5017012;28;20108;-65
2024/02/06 05:20:10;;;;;;;11.50;5.80;;;;;;;-145.63;100.00;61273.97;5014883;28;20036;-65
2024/02/06 05:22:39;;;;;;;9.63;5.32;;;;;;;-145.63;100.00;61273.97;5032192;28;20042;-65
2024/02/06 05:25:09;;;;;;;9.27;5.20;;;;;;;-145.63;100.00;61273.97;5031850;28;20041;-63
2024/02/06 05:27:34;;;;;;;5.32;4.47;;;;;;;-145.63;100.00;61273.97;5033678;28;20033;-65
2024/02/06 05:30:04;;;;;;;5.75;4.63;;;;;;;-145.63;100.00;61273.97;5025071;28;20452;-64
2024/02/06 05:32:35;;;;;;;7.63;4.55;;;;;;;-145.63;100.00;61273.97;5026238;28;20030;-63
2024/02/06 05:35:02;;;;;;;7.82;4.88;;;;;;;-145.63;100.00;61273.97;5014949;28;20053;-64
2024/02/06 05:37:31;;;;;;;8.70;5.07;;;;;;;-145.63;100.00;61273.97;5033651;28;20054;-65
2024/02/06 05:39:57;;;;;;;7.88;4.60;;;;;;;-145.63;100.00;61273.97;5017912;28;20092;-63
2024/02/06 05:42:23;;;;;;;7.47;4.45;;;;;;;-145.63;100.00;61273.97;5025947;28;20033;-60
2024/02/06 05:45:09;;;;;;;6.78;4.13;;;;;;;-145.63;100.00;61273.97;5022375;28;20052;-62
2024/02/06 05:47:35;;;;;;;7.55;4.40;;;;;;;-145.63;100.00;61273.97;5033383;28;20041;-62
2024/02/06 05:50:01;;;;;;;6.97;4.63;;;;;;;-145.63;100.00;61273.97;5020351;28;20033;-62
2024/02/06 05:52:27;;;;;;;6.20;3.90;;;;;;;-145.63;100.00;61273.97;5030446;28;20540;-62
2024/02/06 05:54:52;;;;;;;5.60;3.70;;;;;;;-145.63;100.00;61273.97;5017001;28;20038;-62
2024/02/06 05:57:18;;;;;;;6.93;3.92;;;;;;;-145.63;100.00;61273.97;5023206;28;20088;-62
2024/02/06 05:59:44;;;;;;;5.82;4.00;;;;;;;-145.63;100.00;61273.97;5022480;28;20065;-64
2024/02/06 06:02:09;;;;;;;5.05;3.65;;;;;;;-145.63;100.00;61273.97;5033071;28;20033;-61
2024/02/06 06:04:35;;;;;;;5.18;3.38;;;;;;;-145.63;100.00;61273.97;5017447;28;20036;-62
2024/02/06 06:07:19;;;;;;;5.47;3.75;;;;;;;-145.63;100.00;61273.97;5030512;28;20037;-62
2024/02/06 06:09:44;;;;;;;6.53;3.70;;;;;;;-145.63;100.00;61273.97;5032217;28;20455;-62
2024/02/06 06:12:19;;;;;;;7.20;3.67;;;;;;;-145.63;100.00;61273.97;5038575;28;20044;-63
2024/02/06 06:14:45;;;;;;;5.70;3.78;;;;;;;-145.63;100.00;61273.97;5026844;28;20030;-63
2024/02/06 06:17:32;;;;;;;5.13;3.45;;;;;;;-145.63;100.00;61273.97;5015101;28;20442;-62
2024/02/06 06:19:58;;;;;;;5.97;4.03;;;;;;;-145.63;100.00;61273.97;5015318;28;20026;-62
2024/02/06 06:22:24;;;;;;;8.48;4.10;;;;;;;-145.63;100.00;61273.97;5033265;28;20486;-62
2024/02/06 06:24:49;;;;;;;8.27;3.95;;;;;;;-145.63;100.00;61273.97;5032009;28;20490;-63
2024/02/06 06:27:15;;;;;;;5.45;4.15;;;;;;;-145.63;100.00;61273.97;5033088;28;20033;-63
2024/02/06 06:29:42;;;;;;;9.75;4.93;;;;;;;-145.63;100.00;61273.97;5023379;28;20494;-63
2024/02/06 06:32:07;;;;;;;8.82;5.28;;;;;;;-145.63;100.00;61273.97;5029953;28;20033;-62
2024/02/06 06:34:33;;;;;;;9.20;4.78;;;;;;;-145.63;100.00;61273.97;5013017;28;20033;-61
2024/02/06 06:36:58;;;;;;;10.35;4.70;;;;;;;-145.63;100.00;61273.97;5029517;28;20050;-62
2024/02/06 06:39:24;;;;;;;7.15;4.50;;;;;;;-145.63;100.00;61273.97;5020512;28;20057;-63
2024/02/06 06:41:49;;;;;;;9.63;5.55;;;;;;;-145.63;100.00;61273.97;5018667;28;20057;-62
2024/02/06 06:44:15;;;;;;;12.82;5.60;;;;;;;-145.63;100.00;61273.97;5029888;28;20391;-62
2024/02/06 06:46:41;;;;;;;9.38;4.47;;;;;;;-145.63;100.00;61273.97;5012961;28;20061;-63
2024/02/06 06:49:06;;;;;;;7.38;4.72;;;;;;;-145.63;100.00;61273.97;5019646;28;20111;-62
2024/02/06 06:51:32;;;;;;;11.02;5.32;;;;;;;-145.63;100.00;61273.97;5019787;28;20026;-63
2024/02/06 06:53:57;;;;;;;7.57;4.80;;;;;;;-145.63;100.00;61273.97;5020787;28;20045;-64
2024/02/06 06:56:23;;;;;;;9.13;5.35;;;;;;;-145.63;100.00;61273.97;5031778;28;20041;-64
2024/02/06 06:58:49;;;;;;;9.15;4.90;;;;;;;-145.63;100.00;61273.97;5025802;28;20034;-62
2024/02/06 07:01:15;;;;;;;7.18;5.00;;;;;;;-145.63;100.00;61273.97;5012842;28;20080;-62
2024/02/06 07:03:41;;;;;;;10.45;5.35;;;;;;;-145.63;100.00;61273.97;5025205;28;20385;-63
2024/02/06 07:06:07;;;;;;;7.95;4.78;;;;;;;-145.63;100.00;61273.97;5030334;28;20064;-61
2024/02/06 07:08:33;;;;;;;8.50;4.75;;;;;;;-145.63;100.00;61273.97;5020540;28;20021;-62
2024/02/06 07:10:58;;;;;;;8.57;5.32;;;;;;;-145.63;100.00;61273.97;5034072;28;20155;-64
2024/02/06 07:13:24;;;;;;;8.10;4.22;;;;;;;-145.63;100.00;61273.97;5014724;28;20041;-61
2024/02/06 07:15:49;;;;;;;8.85;4.45;;;;;;;-145.63;100.00;61273.97;5017324;28;20041;-64
2024/02/06 07:18:15;;;;;;;11.68;4.03;;;;;;;-145.63;100.00;61273.97;5021458;28;20088;-62
2024/02/06 07:20:41;;;;;;;6.55;3.75;;;;;;;-145.63;100.00;61273.97;5016217;28;20061;-65
2024/02/06 07:23:07;;;;;;;9.95;4.35;;;;;;;-145.63;100.00;61273.97;5012981;28;20040;-65
2024/02/06 07:25:33;;;;;;;10.63;3.75;;;;;;;-145.63;100.00;61273.97;5012597;28;20030;-62
2024/02/06 07:28:00;;;;;;;8.48;3.95;;;;;;;-145.63;100.00;61273.97;5028668;28;20382;-64
2024/02/06 07:30:26;;;;;;;8.95;4.00;;;;;;;-145.63;100.00;61273.97;5024937;28;20045;-65
2024/02/06 07:32:52;;;;;;;8.15;3.60;;;;;;;-145.63;100.00;61273.97;5028333;28;20087;-63
2024/02/06 07:35:18;;;;;;;5.35;3.15;;;;;;;-145.63;100.00;61273.97;5026517;28;20033;-63
2024/02/06 07:37:43;;;;;;;5.22;3.30;;;;;;;-145.63;100.00;61273.97;5031600;28;20056;-62
2024/02/06 07:40:09;;;;;;;6.68;3.70;;;;;;;-145.63;100.00;61273.97;5013668;28;20037;-62
2024/02/06 07:42:35;;;;;;;6.93;3.65;;;;;;;-145.63;100.00;61273.97;5030312;28;20117;-62
2024/02/06 07:45:00;;;;;;;6.65;3.60;;;;;;;-145.63;100.00;61273.97;5022131;28;20042;-62
2024/02/06 07:47:26;;;;;;;5.15;3.50;;;;;;;-145.63;100.00;61273.97;5015069;28;20478;-63
2024/02/06 07:49:52;;;;;;;8.35;3.83;;;;;;;-145.63;100.00;61273.97;5024848;28;20091;-63
2024/02/06 07:52:17;;;;;;;7.88;4.15;;;;;;;-145.63;100.00;61273.97;5022709;28;20041;-62
2024/02/06 07:54:43;;;;;;;6.70;3.83;;;;;;;-145.63;100.00;61273.97;5031059;28;20044;-64
2024/02/06 07:57:09;;;;;;;7.45;3.88;;;;;;;-145.63;100.00;61273.97;5022610;28;20040;-64
2024/02/06 07:59:34;;;;;;;8.85;3.88;;;;;;;-145.63;100.00;61273.97;5016039;28;20026;-63
2024/02/06 08:02:00;;;;;;;9.85;4.05;;;;;;;-145.63;100.00;61273.97;5031752;28;20116;-64
2024/02/06 08:04:25;;;;;;;7.25;3.63;;;;;;;-145.63;100.00;61273.97;5030935;28;20728;-62
2024/02/06 08:06:51;;;;;;;7.05;4.05;;;;;;;-145.63;100.00;61273.97;5030925;28;20033;-63
2024/02/06 08:09:18;;;;;;;8.45;3.63;;;;;;;-145.63;100.00;61273.97;5031121;28;20127;-61
2024/02/06 08:11:44;;;;;;;6.38;4.10;;;;;;;-145.63;100.00;61273.97;5024016;28;20464;-62
2024/02/06 08:14:14;;;;;;;6.40;3.50;;;;;;;-145.63;100.00;61273.97;5026563;28;20045;-62
2024/02/06 08:16:40;;;;;;;6.00;3.10;;;;;;;-145.63;100.00;61273.97;5031311;28;20135;-62
2024/02/06 08:19:06;;;;;;;4.82;3.15;;;;;;;-145.63;100.00;61273.97;5026601;28;20041;-62
2024/02/06 08:21:31;;;;;;;5.53;3.33;;;;;;;-145.63;100.00;61273.97;5023363;28;20029;-63
2024/02/06 08:23:57;;;;;;;7.15;2.97;;;;;;;-145.63;100.00;61273.97;5028173;28;20038;-61
2024/02/06 08:26:23;;;;;;;4.70;2.80;;;;;;;-145.63;100.00;61273.97;5013367;28;20057;-62
2024/02/06 08:28:49;;;;;;;7.65;3.20;;;;;;;-145.63;100.00;61273.97;5029471;28;20542;-63
2024/02/06 08:31:15;;;;;;;5.30;2.80;;;;;;;-145.63;100.00;61273.97;5022014;28;20058;-62
2024/02/06 08:33:44;;;;;;;8.80;3.25;;;;;;;-145.63;100.00;61273.97;5024000;28;20486;-62
2024/02/06 08:36:16;;;;;;;4.65;2.90;;;;;;;-145.63;100.00;61273.97;5020088;28;20037;-62
2024/02/06 08:38:42;;;;;;;4.40;2.83;;;;;;;-145.63;100.00;61273.97;5026645;28;20092;-63
2024/02/06 08:41:08;;;;;;;6.45;2.60;;;;;;;-145.63;100.00;61273.97;5011690;28;20041;-62
2024/02/06 08:43:34;;;;;;;4.35;2.70;;;;;;;-145.63;100.00;61273.97;5031192;28;20022;-63
2024/02/06 08:46:00;;;;;;;5.13;2.70;;;;;;;-145.63;100.00;61273.97;5028028;28;20355;-65
2024/02/06 08:48:29;;;;;;;3.25;2.10;;;;;;;-145.63;100.00;61273.97;5031488;28;20048;-63
2024/02/06 08:50:55;;;;;;;4.90;2.53;;;;;;;-145.63;100.00;61273.97;5023718;28;20036;-64
2024/02/06 08:53:21;;;;;;;4.97;2.80;;;;;;;-145.63;100.00;61273.97;5032545;28;20029;-63
2024/02/06 08:55:46;;;;;;;6.93;2.75;;;;;;;-145.63;100.00;61273.97;5015073;28;20036;-63
2024/02/06 08:58:12;;;;;;;4.57;2.97;;;;;;;-145.63;100.00;61273.97;5031859;28;20124;-63
2024/02/06 09:00:38;;;;;;;4.70;2.60;;;;;;;-145.63;100.00;61273.97;5027517;28;20095;-62
2024/02/06 09:03:04;;;;;;;5.22;2.92;;;;;;;-145.63;100.00;61273.97;5034481;28;20033;-65
2024/02/06 09:05:29;;;;;;;7.20;2.90;;;;;;;-145.63;100.00;61273.97;5025089;28;20037;-62
2024/02/06 09:07:55;;;;;;;3.67;2.50;;;;;;;-145.63;100.00;61273.97;5034845;28;20032;-62
2024/02/06 09:10:23;;;;;;;4.93;2.83;;;;;;;-145.63;100.00;61273.97;5039952;28;20043;-62
2024/02/06 09:12:51;;;;;;;3.08;2.65;;;;;;;-145.63;100.00;61273.97;5033225;28;20040;-63
2024/02/06 09:15:17;;;;;;;5.82;2.85;;;;;;;-145.63;100.00;61273.97;5024178;28;20119;-62
2024/02/06 09:17:43;;;;;;;5.85;2.88;;;;;;;-145.63;100.00;61273.97;5016112;28;20037;-63
2024/02/06 09:20:09;;;;;;;4.43;2.80;;;;;;;-145.63;100.00;61273.97;5014273;28;20431;-62
2024/02/06 09:22:37;;;;;;;5.85;3.22;;;;;;;-145.63;100.00;61273.97;5033330;28;20045;-62
2024/02/06 09:25:05;;;;;;;5.38;2.40;;;;;;;-145.63;100.00;61273.97;5032324;28;20037;-63
2024/02/06 09:27:31;;;;;;;3.90;2.53;;;;;;;-145.63;100.00;61273.97;5022749;28;20026;-64
2024/02/06 09:29:58;;;;;;;5.85;3.00;;;;;;;-145.63;100.00;61273.97;5019432;28;20068;-65
2024/02/06 09:32:24;;;;;;;4.07;2.47;;;;;;;-145.63;100.00;61273.97;5033405;28;20038;-64
2024/02/06 09:34:51;;;;;;;5.93;2.90;;;;;;;-145.63;100.00;61273.97;5033325;28;20064;-64
2024/02/06 09:37:16;;;;;;;4.90;2.58;;;;;;;-145.63;100.00;61273.97;5032916;28;20116;-61
2024/02/06 09:39:42;;;;;;;3.05;2.55;;;;;;;-145.63;100.00;61273.97;5026950;28;20109;-63
2024/02/06 09:42:08;;;;;;;4.55;2.47;;;;;;;-145.63;100.00;61273.97;5027980;28;20052;-63
2024/02/06 09:44:34;;;;;;;4.63;2.83;;;;;;;-145.63;100.00;61273.97;5033104;28;20673;-65
2024/02/06 09:47:00;;;;;;;4.25;2.58;;;;;;;-145.63;100.00;61273.97;5032918;28;20033;-66
2024/02/06 09:49:26;;;;;;;6.05;2.60;;;;;;;-145.63;100.00;61273.97;5031542;28;20160;-64
2024/02/06 09:51:52;;;;;;;5.05;2.42;;;;;;;-145.63;100.00;61273.97;5032754;28;20040;-63
2024/02/06 09:54:23;;;;;;;5.53;2.60;;;;;;;-145.63;100.00;61273.97;5032315;28;20384;-64
2024/02/06 09:56:50;;;;;;;5.22;2.40;;;;;;;-145.63;100.00;61273.97;5019099;28;20025;-65
2024/02/06 09:59:17;;;;;;;6.68;2.40;;;;;;;-145.63;100.00;61273.97;5032888;28;20034;-64
2024/02/06 10:01:44;;;;;;;4.47;2.33;;;;;;;-145.63;100.00;61273.97;5015204;28;20395;-63
2024/02/06 10:04:16;;;;;;;2.42;1.95;;;;;;;-145.63;100.00;61273.97;5032239;28;20175;-66
2024/02/06 10:06:45;;;;;;;3.80;2.50;;;;;;;-145.63;100.00;61273.97;5032548;28;20022;-64
2024/02/06 10:09:12;;;;;;;3.30;1.95;;;;;;;-145.63;100.00;61273.97;5033039;28;20025;-63
2024/02/06 10:11:39;;;;;;;5.90;2.20;;;;;;;-145.63;100.00;61273.97;5035813;28;20025;-64
2024/02/06 10:14:05;;;;;;;2.33;2.10;;;;;;;-145.63;100.00;61273.97;5030967;28;20037;-63
2024/02/06 10:16:35;;;;;;;3.80;2.40;;;;;;;-145.63;100.00;61273.97;5025662;28;20021;-63
2024/02/06 10:19:01;;;;;;;4.28;2.20;;;;;;;-145.63;100.00;61273.97;5025097;28;20038;-63
2024/02/06 10:21:27;;;;;;;5.50;2.88;;;;;;;-145.63;100.00;61273.97;5028334;28;20033;-63
2024/02/06 10:24:00;;;;;;;3.63;2.35;;;;;;;-145.63;100.00;61273.97;5027477;28;20036;-63
2024/02/06 10:26:26;;;;;;;3.90;2.20;;;;;;;-145.63;100.00;61273.97;5021561;28;20619;-62
2024/02/06 10:29:06;;;;;;;3.75;2.55;;;;;;;-145.63;100.00;61273.97;5024133;28;20068;-63
2024/02/06 10:31:32;;;;;;;3.95;2.17;;;;;;;-145.63;100.00;61273.97;5023762;28;20115;-63
2024/02/06 10:34:07;;;;;;;5.40;3.15;;;;;;;-145.63;100.00;61273.97;5027090;28;20037;-62
2024/02/06 10:36:35;;;;;;;4.03;2.50;;;;;;;-145.63;100.00;61273.97;5026957;28;20030;-63
2024/02/06 10:39:02;;;;;;;3.72;2.33;;;;;;;-145.63;100.00;61273.97;5009438;28;20057;-62
2024/02/06 10:41:28;;;;;;;6.72;3.22;;;;;;;-145.63;100.00;61273.97;5024476;28;20065;-62
2024/02/06 10:43:54;;;;;;;4.63;2.72;;;;;;;-145.63;100.00;61273.97;5029122;28;20041;-62
2024/02/06 10:46:21;;;;;;;4.20;2.40;;;;;;;-145.63;100.00;61273.97;5021706;28;20429;-62
2024/02/06 10:48:47;;;;;;;3.70;2.03;;;;;;;-145.63;100.00;61273.97;5024085;28;20121;-63
2024/02/06 10:51:22;;;;;;;4.15;2.10;;;;;;;-145.63;100.00;61273.97;5020305;28;20121;-62
2024/02/06 10:53:48;;;;;;;2.22;1.90;;;;;;;-145.63;100.00;61273.97;5024960;28;20025;-62
2024/02/06 10:56:15;;;;;;;3.13;1.65;;;;;;;-145.63;100.00;61273.97;5024172;28;20091;-61
2024/02/06 10:58:44;;;;;;;2.28;1.90;;;;;;;-145.63;100.00;61273.97;5027088;28;20068;-63
2024/02/06 11:01:14;;;;;;;3.00;1.92;;;;;;;-145.63;100.00;61273.97;5024275;28;20087;-62
2024/02/06 11:04:12;;;;;;;2.00;1.60;;;;;;;-145.63;100.00;61273.97;5024468;28;20052;-63
2024/02/06 11:06:45;;;;;;;3.28;1.63;;;;;;;-145.63;100.00;61273.97;5022260;28;20037;-63
2024/02/06 11:09:16;;;;;;;4.05;1.95;;;;;;;-145.63;100.00;61273.97;5032024;28;20041;-63
2024/02/06 11:11:42;;;;;;;4.38;1.70;;;;;;;-145.63;100.00;61273.97;5026159;28;20033;-62
2024/02/06 11:14:13;;;;;;;3.08;1.92;;;;;;;-145.63;100.00;61273.97;5027429;28;20491;-63
2024/02/06 11:16:51;;;;;;;3.83;1.98;;;;;;;-145.63;100.00;61273.97;5025411;28;20069;-62